ヘルシンキ/ヴァンター の空港の天気 - METARとTAF

ヘルシンキ・ヴァンター国際空港 ( EFHK / HEL ) - フィンランド ヴァンター
飛行場実況気象(Metar)
観測時間01/20 19:50 EET (01/20 17:50 UTC)
風向・風速西北西 5m/s
視程10km以上
天気現象
全天の4割程度の雲 雲底高度 120m
全天の8割程度の雲 雲底高度 210m
気温0℃
湿度93%
気圧1013hPa
METAREFHK 201750Z 30009KT 9999 SCT004 BKN007 00/M01 Q1013 REFZDZ NOSIG
過去の天気等 Google飛行場航空写真 Wunderground天気予報

過去48時間のMETAR

飛行場予報(TAF)
発表時間: 1/20 19:33 EET (1/20 17:33 UTC)
予報対象時間: 20日20時 EET ~ 21日20時 EET
風向・風速西南西 3m/s
視程4,000m
天気現象弱い氷霧雨
全天の8割程度の雲 雲底高度 90m
20日20時 EET ~ 20日22時 EET に徐々に
視程10km以上
天気現象運行に影響にある天気現象が終了
全天の8割程度の雲 雲底高度 150m
20日22時 EET ~ 20日24時 EET に一時的に
視程2,000m
天気現象もや
全天の8割程度の雲 雲底高度 120m
21日0時 EET ~ 21日2時 EET に徐々に
風向・風速西北西 5m/s
視程10km以上
なし
TAF EFHK 201733Z 2018/2118 24005KT 4000 -FZDZ BKN003
BECMG 2018/2020 9999 NSW BKN005
TEMPO 2020/2022 2000 BR BKN004
BECMG 2022/2024 30010KT CAVOK